Time;durP1;ratioP1;P1;durP2;ratioP2;P2;SDS_P1;SDS_P2;PMS_P1;PMS_P2;Temp;Humidity;BMP_temperature;BMP_pressure;BME280_temperature;BME280_humidity;BME280_pressure;Samples;Min_cycle;Max_cycle;Signal;HPM_P1;HPM_P2
2022/07/05 00:02:10;;;;;;;14.10;5.93;;;;;;;22.80;100.00;100363.13;4900090;29;20051;-89
2022/07/05 00:04:36;;;;;;;18.48;5.95;;;;;;;22.80;100.00;100373.09;4898261;29;20355;-89
2022/07/05 00:07:20;;;;;;;15.60;5.95;;;;;;;22.84;100.00;100375.03;4898534;29;20453;-89
2022/07/05 00:09:52;;;;;;;14.15;6.15;;;;;;;22.73;100.00;100372.44;4898299;29;20459;-90
2022/07/05 00:12:19;;;;;;;;;;;;;;;22.50;100.00;100379.59;4899649;29;20100;-89
2022/07/05 00:14:45;;;;;;;13.60;7.00;;;;;;;22.41;100.00;100380.22;4906406;29;19929;-88
2022/07/05 00:17:12;;;;;;;19.02;6.78;;;;;;;22.31;100.00;100385.41;4915860;28;20041;-88
2022/07/05 00:19:39;;;;;;;16.38;6.68;;;;;;;22.11;100.00;100381.28;4919929;29;20131;-91
2022/07/05 00:22:04;;;;;;;14.82;6.47;;;;;;;22.13;100.00;100379.19;4899962;29;20032;-91
2022/07/05 00:24:30;;;;;;;12.20;6.05;;;;;;;22.22;100.00;100384.19;4897548;29;20045;-92
2022/07/05 00:26:56;;;;;;;13.07;6.63;;;;;;;22.20;100.00;100394.41;4896921;29;20044;-90
2022/07/05 00:29:22;;;;;;;15.60;7.03;;;;;;;22.31;100.00;100396.22;4900875;29;20037;-91
2022/07/05 00:31:47;;;;;;;16.00;6.68;;;;;;;22.36;100.00;100386.34;4908261;29;20095;-91
2022/07/05 00:34:13;;;;;;;16.05;6.28;;;;;;;22.44;100.00;100395.94;4904007;29;20043;-90
2022/07/05 00:36:39;;;;;;;11.73;5.45;;;;;;;22.63;100.00;100390.09;4906267;29;20040;-89
2022/07/05 00:39:26;;;;;;;14.55;6.05;;;;;;;22.69;100.00;100399.13;4910698;29;20086;-89
2022/07/05 00:41:53;;;;;;;8.10;4.88;;;;;;;22.63;100.00;100383.88;4903721;29;20040;-90
2022/07/05 00:44:30;;;;;;;12.77;5.63;;;;;;;22.33;100.00;100384.13;4918664;29;20044;-89
2022/07/05 00:46:55;;;;;;;14.55;5.03;;;;;;;22.43;100.00;100378.94;4936667;29;20016;-89
2022/07/05 00:49:21;;;;;;;11.82;4.25;;;;;;;22.40;100.00;100384.00;4920530;29;20028;-90
2022/07/05 00:51:47;;;;;;;10.07;4.55;;;;;;;22.34;100.00;100384.97;4920936;29;20043;-90
2022/07/05 00:54:12;;;;;;;10.95;4.25;;;;;;;22.28;100.00;100383.22;4921026;29;20088;-89
2022/07/05 00:56:38;;;;;;;9.60;4.03;;;;;;;22.46;100.00;100389.25;4936054;29;20025;-89
2022/07/05 00:59:04;;;;;;;12.75;4.70;;;;;;;22.33;100.00;100376.03;4920860;29;20060;-89
2022/07/05 01:01:29;;;;;;;11.43;4.47;;;;;;;22.27;100.00;100379.72;4920199;29;20088;-89
2022/07/05 01:03:55;;;;;;;11.43;3.80;;;;;;;22.26;100.00;100382.63;4914935;29;20441;-90
2022/07/05 01:06:21;;;;;;;9.05;3.30;;;;;;;22.07;100.00;100377.41;4900599;29;20060;-89
2022/07/05 01:08:46;;;;;;;13.93;3.90;;;;;;;21.99;100.00;100379.69;4902752;29;20035;-89
2022/07/05 01:11:13;;;;;;;7.72;3.55;;;;;;;21.99;100.00;100385.91;4904173;29;20036;-89
2022/07/05 01:13:39;;;;;;;10.55;3.88;;;;;;;21.92;100.00;100392.50;4918712;28;20037;-90
2022/07/05 01:16:05;;;;;;;7.05;3.95;;;;;;;21.92;100.00;100393.31;4913057;28;20909;-91
2022/07/05 01:18:32;;;;;;;6.68;3.55;;;;;;;21.93;100.00;100394.97;4897713;29;20060;-91
2022/07/05 01:21:02;;;;;;;9.27;4.32;;;;;;;21.94;100.00;100402.00;4895990;29;20390;-91
2022/07/05 01:23:30;;;;;;;13.57;4.55;;;;;;;21.94;100.00;100393.91;4911708;28;20044;-92
2022/07/05 01:25:58;;;;;;;10.50;4.75;;;;;;;21.92;100.00;100387.94;4897370;29;20048;-90
2022/07/05 01:28:24;;;;;;;11.95;4.38;;;;;;;21.94;100.00;100391.19;4897190;29;20032;-91
2022/07/05 01:30:51;;;;;;;17.35;4.93;;;;;;;21.93;100.00;100383.34;4896218;29;20066;-91
2022/07/05 01:33:17;;;;;;;14.02;5.75;;;;;;;21.90;100.00;100390.06;4897247;29;20046;-91
2022/07/05 01:35:42;;;;;;;17.25;6.05;;;;;;;21.90;100.00;100390.06;4897160;29;20083;-91
2022/07/05 01:38:11;;;;;;;12.45;5.22;;;;;;;21.91;100.00;100388.16;4896701;29;20483;-92
2022/07/05 01:40:36;;;;;;;13.73;5.38;;;;;;;21.93;100.00;100378.78;4897074;29;20036;-88
2022/07/05 01:43:03;;;;;;;17.25;6.60;;;;;;;21.88;100.00;100380.50;4896657;29;20043;-91
2022/07/05 01:45:44;;;;;;;12.00;5.97;;;;;;;21.80;100.00;100375.50;4896769;29;20032;-89
2022/07/05 01:48:13;;;;;;;15.05;5.95;;;;;;;21.83;100.00;100386.63;4895852;29;20486;-91
2022/07/05 01:50:48;;;;;;;18.75;6.30;;;;;;;21.86;100.00;100391.56;4896545;29;20083;-90
2022/07/05 01:53:27;;;;;;;14.18;5.97;;;;;;;21.90;100.00;100379.25;4896900;29;20036;-90
2022/07/05 01:55:53;;;;;;;11.25;5.32;;;;;;;21.97;100.00;100396.16;4911028;29;20486;-89
2022/07/05 01:58:20;;;;;;;20.20;5.32;;;;;;;22.22;100.00;100381.47;4912059;28;20451;-90
2022/07/05 02:00:48;;;;;;;12.38;5.22;;;;;;;22.32;100.00;100392.47;4911874;28;20091;-91
2022/07/05 02:03:15;;;;;;;16.70;5.13;;;;;;;22.28;100.00;100391.31;4896524;28;20037;-91
2022/07/05 02:05:42;;;;;;;12.93;5.30;;;;;;;22.26;100.00;100391.56;4896380;29;20040;-91
2022/07/05 02:08:12;;;;;;;10.88;3.95;;;;;;;22.30;100.00;100383.81;4916665;28;20468;-90
2022/07/05 02:10:39;;;;;;;9.88;3.80;;;;;;;22.34;100.00;100384.97;4918610;28;20044;-90
2022/07/05 02:13:07;;;;;;;8.88;4.50;;;;;;;22.25;100.00;100373.72;4918096;28;20041;-89
2022/07/05 02:15:36;;;;;;;9.63;3.55;;;;;;;22.21;100.00;100374.44;4912047;28;20033;-91
2022/07/05 02:18:03;;;;;;;8.80;3.90;;;;;;;22.07;100.00;100380.13;4879633;28;20530;-90
2022/07/05 02:20:32;;;;;;;7.72;3.60;;;;;;;22.02;100.00;100393.53;4895622;29;20076;-91
2022/07/05 02:22:59;;;;;;;10.98;3.30;;;;;;;22.04;100.00;100375.22;4912226;28;20037;-92
2022/07/05 02:25:24;;;;;;;18.60;3.60;;;;;;;21.98;100.00;100386.97;4896488;29;20108;-91
2022/07/05 02:27:55;;;;;;;11.18;3.17;;;;;;;22.01;100.00;100386.47;4898880;29;20087;-91
2022/07/05 02:30:21;;;;;;;17.35;3.63;;;;;;;22.06;100.00;100378.50;4917212;29;20120;-90
2022/07/05 02:32:47;;;;;;;7.03;3.03;;;;;;;22.24;100.00;100382.88;4917131;28;20035;-90
2022/07/05 02:35:13;;;;;;;7.68;2.88;;;;;;;22.19;100.00;100377.38;4900709;29;20119;-91
2022/07/05 02:37:42;;;;;;;13.55;3.17;;;;;;;22.06;100.00;100373.09;4896445;29;20029;-91
2022/07/05 02:40:10;;;;;;;11.00;2.90;;;;;;;22.10;100.00;100378.84;4895103;29;20028;-88
2022/07/05 02:42:39;;;;;;;8.68;3.10;;;;;;;22.01;100.00;100377.56;4896777;29;20091;-88
2022/07/05 02:45:07;;;;;;;6.85;3.22;;;;;;;21.97;100.00;100374.56;4894984;29;20036;-91
2022/07/05 02:47:34;;;;;;;7.05;3.40;;;;;;;22.06;100.00;100378.50;4895447;29;20044;-91
2022/07/05 02:50:06;;;;;;;9.30;2.80;;;;;;;21.93;100.00;100377.97;4911381;28;20077;-91
2022/07/05 02:52:34;;;;;;;7.43;2.72;;;;;;;21.89;100.00;100380.31;4910986;28;20043;-91
2022/07/05 02:55:01;;;;;;;6.57;2.63;;;;;;;21.87;100.00;100389.69;4911366;28;20052;-92
2022/07/05 02:57:27;;;;;;;15.48;3.75;;;;;;;21.81;100.00;100383.34;4896238;29;20037;-91
2022/07/05 02:59:54;;;;;;;5.57;3.30;;;;;;;21.79;100.00;100382.78;4895104;29;20043;-92
2022/07/05 03:02:21;;;;;;;8.05;3.00;;;;;;;21.91;100.00;100380.88;4895755;29;20033;-90
2022/07/05 03:04:49;;;;;;;7.93;3.15;;;;;;;21.91;100.00;100386.28;4911905;28;20052;-92
2022/07/05 03:07:16;;;;;;;18.27;3.58;;;;;;;21.86;100.00;100383.47;4897129;29;20036;-90
2022/07/05 03:09:42;;;;;;;7.65;3.55;;;;;;;21.87;100.00;100377.03;4896639;29;20569;-90
2022/07/05 03:12:08;;;;;;;12.07;3.55;;;;;;;21.97;100.00;100376.44;4895029;29;20108;-92
2022/07/05 03:14:35;;;;;;;11.82;3.92;;;;;;;22.03;100.00;100359.28;4894846;29;20041;-90
2022/07/05 03:17:02;;;;;;;7.68;4.18;;;;;;;21.95;100.00;100365.84;4910622;28;20533;-92
2022/07/05 03:19:28;;;;;;;8.57;4.13;;;;;;;21.77;100.00;100357.09;4895050;29;20084;-90
2022/07/05 03:21:54;;;;;;;16.58;5.25;;;;;;;21.67;100.00;100357.72;4911148;28;20115;-90
2022/07/05 03:24:20;;;;;;;15.63;6.18;;;;;;;21.65;100.00;100349.03;4910203;29;20047;-92
2022/07/05 03:26:46;;;;;;;20.70;6.45;;;;;;;21.58;100.00;100342.94;4895703;29;20131;-90
2022/07/05 03:29:11;;;;;;;14.52;5.93;;;;;;;21.47;100.00;100341.09;4880709;29;20127;-91
2022/07/05 03:31:39;;;;;;;14.68;5.80;;;;;;;21.38;100.00;100331.72;4897781;29;20033;-90
2022/07/05 03:34:06;;;;;;;11.73;5.55;;;;;;;21.38;100.00;100323.63;4914900;28;20442;-89
2022/07/05 03:36:32;;;;;;;10.75;5.88;;;;;;;21.33;100.00;100328.94;4897069;29;20036;-89
2022/07/05 03:39:00;;;;;;;10.18;5.53;;;;;;;21.36;100.00;100333.84;4897779;29;20084;-91
2022/07/05 03:41:26;;;;;;;11.15;5.53;;;;;;;21.35;100.00;100334.88;4915603;29;20048;-90
2022/07/05 03:43:52;;;;;;;9.73;5.55;;;;;;;21.48;100.00;100329.25;4897796;29;20119;-90
2022/07/05 03:46:18;;;;;;;10.20;5.07;;;;;;;21.33;100.00;100324.38;4897693;29;20037;-91
2022/07/05 03:48:44;;;;;;;16.05;5.70;;;;;;;21.31;100.00;100322.97;4898031;29;20033;-90
2022/07/05 03:51:12;;;;;;;18.52;5.72;;;;;;;21.36;100.00;100317.66;4913258;28;20135;-90
2022/07/05 03:53:38;;;;;;;9.02;5.10;;;;;;;21.44;100.00;100320.00;4897703;29;20044;-89
2022/07/05 03:56:05;;;;;;;12.05;5.03;;;;;;;21.65;100.00;100311.25;4885543;29;20128;-91
2022/07/05 03:58:49;;;;;;;11.00;4.85;;;;;;;21.66;100.00;100312.91;4927955;29;20036;-89
2022/07/05 04:01:15;;;;;;;12.30;5.53;;;;;;;21.74;100.00;100312.53;4936012;28;20049;-89
2022/07/05 04:03:44;;;;;;;14.50;5.55;;;;;;;21.54;100.00;100320.22;4936715;29;20076;-90
2022/07/05 04:06:12;;;;;;;14.65;4.50;;;;;;;21.38;100.00;100320.94;4920639;29;20025;-90
2022/07/05 04:08:40;;;;;;;14.60;4.22;;;;;;;21.37;100.00;100335.50;4915081;28;20068;-88
2022/07/05 04:11:07;;;;;;;13.60;3.97;;;;;;;21.41;100.00;100337.47;4913423;28;20064;-89
2022/07/05 04:13:34;;;;;;;16.00;3.53;;;;;;;21.62;100.00;100344.09;4898657;29;20083;-89
2022/07/05 04:16:00;;;;;;;11.10;4.10;;;;;;;21.65;100.00;100341.75;4897981;29;20044;-90
2022/07/05 04:18:26;;;;;;;8.75;3.92;;;;;;;21.66;100.00;100345.28;4897643;29;20082;-89
2022/07/05 04:20:53;;;;;;;6.40;3.60;;;;;;;21.77;100.00;100354.41;4883054;29;20045;-90
2022/07/05 04:23:19;;;;;;;19.98;3.70;;;;;;;21.81;100.00;100355.56;4882941;29;20041;-90
2022/07/05 04:25:45;;;;;;;17.92;3.72;;;;;;;21.76;100.00;100358.97;4912975;28;20040;-89
2022/07/05 04:28:18;;;;;;;8.73;4.20;;;;;;;21.73;100.00;100359.47;4897427;29;20037;-88
2022/07/05 04:30:46;;;;;;;13.85;4.95;;;;;;;21.73;100.00;100367.53;4896338;29;20174;-90
2022/07/05 04:33:13;;;;;;;14.50;4.60;;;;;;;21.71;100.00;100366.94;4912342;29;20505;-87
2022/07/05 04:35:41;;;;;;;10.43;4.40;;;;;;;21.74;100.00;100369.19;4897117;29;20123;-85
2022/07/05 04:38:07;;;;;;;10.90;5.40;;;;;;;21.78;100.00;100378.44;4898892;29;20199;-86
2022/07/05 04:40:36;;;;;;;18.35;4.97;;;;;;;21.90;100.00;100371.16;4911456;28;20122;-86
2022/07/05 04:43:02;;;;;;;12.85;5.88;;;;;;;21.95;100.00;100371.25;4900388;29;20524;-86
2022/07/05 04:45:27;;;;;;;12.70;5.75;;;;;;;22.02;100.00;100376.50;4897449;29;20123;-89
2022/07/05 04:47:53;;;;;;;12.50;5.63;;;;;;;22.07;100.00;100380.13;4896628;29;20174;-89
2022/07/05 04:50:22;;;;;;;14.73;5.53;;;;;;;22.05;100.00;100370.63;4896818;29;20045;-87
2022/07/05 04:52:48;;;;;;;16.83;4.95;;;;;;;21.99;100.00;100377.81;4913076;29;20043;-87
2022/07/05 04:55:13;;;;;;;13.18;5.03;;;;;;;21.99;100.00;100380.53;4912929;29;20033;-82
2022/07/05 04:57:40;;;;;;;13.07;4.65;;;;;;;22.06;100.00;100389.31;4916702;29;20025;-85
2022/07/05 05:00:09;;;;;;;8.68;4.25;;;;;;;22.26;100.00;100393.44;4916475;29;20016;-86
2022/07/05 05:02:34;;;;;;;13.18;5.35;;;;;;;22.42;100.00;100387.25;4911479;29;20060;-89
2022/07/05 05:05:00;;;;;;;13.93;5.57;;;;;;;22.51;100.00;100396.59;4897899;29;20512;-88
2022/07/05 05:07:26;;;;;;;11.57;5.00;;;;;;;22.57;100.00;100401.84;4897188;29;20059;-87
2022/07/05 05:09:52;;;;;;;9.13;5.75;;;;;;;22.58;100.00;100406.19;4912355;28;20518;-90
2022/07/05 05:12:17;;;;;;;16.13;5.80;;;;;;;22.67;100.00;100398.53;4896573;29;20122;-90
2022/07/05 05:14:43;;;;;;;11.15;5.30;;;;;;;22.73;100.00;100392.16;4896136;29;20045;-89
2022/07/05 05:17:08;;;;;;;15.82;5.97;;;;;;;22.70;100.00;100405.34;4895465;29;20040;-88
2022/07/05 05:19:34;;;;;;;10.57;5.28;;;;;;;22.76;100.00;100407.91;4896450;29;20052;-88
2022/07/05 05:21:59;;;;;;;16.20;5.40;;;;;;;22.64;100.00;100399.81;4896777;29;20479;-90
2022/07/05 05:24:25;;;;;;;15.93;5.93;;;;;;;22.61;100.00;100402.19;4917649;29;20047;-89
2022/07/05 05:26:51;;;;;;;26.67;5.78;;;;;;;22.69;100.00;100401.81;4922033;28;20495;-89
2022/07/05 05:29:17;;;;;;;16.73;5.45;;;;;;;22.78;100.00;100397.66;4906141;29;20044;-89
2022/07/05 05:31:43;;;;;;;15.77;5.93;;;;;;;22.97;99.02;100401.75;4900253;29;20120;-90
2022/07/05 05:34:09;;;;;;;11.52;5.00;;;;;;;22.96;98.59;100402.81;4902135;29;20127;-91
2022/07/05 05:36:36;;;;;;;11.90;5.28;;;;;;;23.09;98.00;100401.66;4899175;29;20144;-88
2022/07/05 05:39:07;;;;;;;12.70;5.53;;;;;;;23.06;98.71;100408.41;4901186;29;20437;-84
2022/07/05 05:41:35;;;;;;;12.60;5.40;;;;;;;23.26;98.12;100416.00;4898776;29;20040;-93
2022/07/05 05:44:02;;;;;;;12.40;5.10;;;;;;;23.33;97.23;100419.34;4916271;29;20052;-84
2022/07/05 05:46:29;;;;;;;11.50;4.82;;;;;;;23.51;96.82;100420.97;4889490;29;20037;-89
2022/07/05 05:48:54;;;;;;;6.13;4.47;;;;;;;23.80;94.42;100421.66;4884534;28;20041;-88
2022/07/05 05:51:20;;;;;;;9.75;4.53;;;;;;;23.92;93.27;100412.34;4881706;29;20040;-90
2022/07/05 05:53:45;;;;;;;11.88;4.50;;;;;;;24.05;92.02;100419.25;4890767;28;20041;-86
2022/07/05 05:56:12;;;;;;;8.18;3.88;;;;;;;24.11;91.97;100424.47;4880394;28;20041;-92
2022/07/05 05:58:37;;;;;;;14.02;4.57;;;;;;;24.35;90.45;100432.34;4879567;29;20041;-91
2022/07/05 06:01:03;;;;;;;11.80;3.53;;;;;;;24.63;88.40;100426.66;4880223;29;20048;-87
2022/07/05 06:03:29;;;;;;;10.43;3.55;;;;;;;24.68;86.04;100427.56;4880631;28;20052;-88
2022/07/05 06:05:55;;;;;;;10.18;3.15;;;;;;;24.99;83.63;100430.56;4880465;29;20049;-89
2022/07/05 06:08:21;;;;;;;10.32;3.22;;;;;;;25.17;81.99;100435.59;4882210;29;20120;-92
2022/07/05 06:10:47;;;;;;;10.10;2.95;;;;;;;25.35;80.62;100431.66;4883976;29;20041;-87
2022/07/05 06:13:13;;;;;;;7.75;3.05;;;;;;;25.46;78.90;100430.63;4893451;28;20038;-87
2022/07/05 06:15:40;;;;;;;8.23;3.08;;;;;;;25.77;76.53;100428.94;4893279;28;20124;-86
2022/07/05 06:18:08;;;;;;;9.98;2.92;;;;;;;26.04;74.12;100433.13;4888344;28;20041;-88
2022/07/05 06:20:35;;;;;;;8.98;2.83;;;;;;;26.51;72.62;100443.09;4878756;28;20037;-92
2022/07/05 06:23:03;;;;;;;13.75;2.60;;;;;;;26.61;70.71;100443.13;4879777;28;20502;-91
2022/07/05 06:25:29;;;;;;;8.75;2.55;;;;;;;26.68;70.85;100438.22;4879705;29;20477;-87
2022/07/05 06:27:56;;;;;;;12.25;2.78;;;;;;;26.91;67.21;100437.75;4878554;28;20079;-88
2022/07/05 06:30:23;;;;;;;8.20;2.20;;;;;;;27.43;64.72;100442.03;4880581;28;20037;-89
2022/07/05 06:32:50;;;;;;;9.13;2.50;;;;;;;27.90;62.98;100445.22;4879835;28;20132;-84
2022/07/05 06:35:17;;;;;;;7.63;2.08;;;;;;;28.31;59.00;100450.50;4880942;28;20033;-89
2022/07/05 06:37:52;;;;;;;10.00;2.58;;;;;;;28.91;56.02;100450.16;4883126;28;20111;-83
2022/07/05 06:40:19;;;;;;;11.07;2.25;;;;;;;28.71;57.95;100450.28;4883627;28;20093;-91
2022/07/05 06:42:45;;;;;;;14.65;2.42;;;;;;;28.63;57.53;100454.41;4883580;28;20048;-83
2022/07/05 06:45:11;;;;;;;13.70;2.20;;;;;;;28.30;58.04;100457.06;4884883;28;20068;-90
2022/07/05 06:47:37;;;;;;;5.80;2.08;;;;;;;28.37;58.21;100460.31;4882123;28;20033;-91
2022/07/05 06:50:04;;;;;;;4.75;1.65;;;;;;;29.21;55.33;100449.06;4879965;29;20095;-89
2022/07/05 06:52:31;;;;;;;5.00;2.10;;;;;;;29.02;55.59;100446.25;4879230;28;20116;-92
2022/07/05 06:54:58;;;;;;;6.97;2.63;;;;;;;30.39;52.26;100455.72;4878890;28;20510;-85
2022/07/05 06:57:24;;;;;;;7.13;2.45;;;;;;;30.10;51.83;100456.63;4878560;28;20403;-89
2022/07/05 06:59:50;;;;;;;5.18;1.92;;;;;;;30.36;50.62;100461.78;4877949;28;20033;-93
2022/07/05 07:02:16;;;;;;;8.27;2.25;;;;;;;30.70;49.87;100457.75;4878861;28;20048;-84
2022/07/05 07:04:41;;;;;;;10.63;1.80;;;;;;;30.30;50.42;100454.72;4881854;28;20041;-88
2022/07/05 07:09:17;;;;;;;8.55;1.77;;;;;;;30.03;49.74;100456.16;4882086;28;20099;-92
2022/07/05 07:09:56;;;;;;;5.38;2.00;;;;;;;29.81;50.59;100447.66;4882081;28;20049;-88
2022/07/05 07:12:22;;;;;;;7.07;2.35;;;;;;;29.91;50.33;100453.03;4886059;29;20071;-84
2022/07/05 07:14:48;;;;;;;8.27;1.90;;;;;;;30.15;49.75;100459.31;4896657;28;20025;-85
2022/07/05 07:17:13;;;;;;;8.70;2.17;;;;;;;30.10;49.30;100459.38;4903548;28;20089;-86
2022/07/05 07:19:39;;;;;;;9.10;2.05;;;;;;;30.23;49.16;100455.91;4903433;28;20037;-87
2022/07/05 07:22:04;;;;;;;5.85;2.35;;;;;;;30.39;49.35;100455.72;4903689;28;20056;-90
2022/07/05 07:24:30;;;;;;;4.85;1.88;;;;;;;30.44;49.30;100463.88;4902762;28;20076;-86
2022/07/05 07:27:04;;;;;;;7.13;2.05;;;;;;;31.05;47.20;100450.13;4901090;28;20033;-88
2022/07/05 07:29:31;;;;;;;5.07;1.70;;;;;;;30.91;47.78;100460.97;4901822;28;20041;-87
2022/07/05 07:32:04;;;;;;;4.20;1.90;;;;;;;31.35;46.44;100452.31;4901787;28;20037;-91
2022/07/05 07:34:31;;;;;;;7.38;1.90;;;;;;;32.32;44.36;100462.25;4889907;28;20099;-92
2022/07/05 07:36:58;;;;;;;10.38;2.47;;;;;;;32.46;44.20;100460.25;4870185;29;20047;-91
2022/07/05 07:39:25;;;;;;;5.60;1.67;;;;;;;32.39;43.29;100466.16;4903353;29;20049;-92
2022/07/05 07:41:51;;;;;;;7.80;1.90;;;;;;;31.84;43.52;100457.16;4904551;29;20389;-92
2022/07/05 07:44:17;;;;;;;8.93;1.60;;;;;;;33.15;40.78;100465.25;4907046;29;20032;-89
2022/07/05 07:46:44;;;;;;;6.25;1.58;;;;;;;33.02;40.86;100465.28;4886819;29;20044;-91
2022/07/05 07:49:13;;;;;;;6.47;2.30;;;;;;;33.58;39.75;100453.66;4900162;29;20076;-89
2022/07/05 07:51:40;;;;;;;7.28;2.08;;;;;;;31.96;42.94;100454.72;4915834;28;20040;-90
2022/07/05 07:54:06;;;;;;;3.80;1.35;;;;;;;32.99;41.08;100455.72;4917142;28;20033;-91
2022/07/05 07:56:31;;;;;;;8.82;2.08;;;;;;;32.73;42.19;100451.97;4904461;29;20060;-94
2022/07/05 07:58:57;;;;;;;6.00;1.80;;;;;;;33.32;40.69;100449.97;4902820;29;20028;-90
2022/07/05 08:01:23;;;;;;;4.53;1.63;;;;;;;33.46;40.62;100451.53;4905469;29;20050;-93
2022/07/05 08:03:52;;;;;;;5.82;1.35;;;;;;;33.09;41.15;100452.75;4903132;29;20049;-89
2022/07/05 08:06:18;;;;;;;5.10;1.88;;;;;;;32.73;41.52;100441.81;4908381;28;20100;-91
2022/07/05 08:09:22;;;;;;;5.10;2.10;;;;;;;33.06;40.93;100455.28;4935369;28;20033;-92
2022/07/05 08:11:48;;;;;;;8.85;1.60;;;;;;;32.78;41.51;100449.09;4896775;29;20045;-89
2022/07/05 08:14:16;;;;;;;4.55;1.50;;;;;;;32.57;42.31;100447.94;4896843;29;20037;-89
2022/07/05 08:16:46;;;;;;;4.80;1.75;;;;;;;33.14;41.25;100441.66;4913155;28;20037;-88
2022/07/05 08:21:56;;;;;;;7.22;1.95;;;;;;;33.06;41.16;100442.38;4897400;28;20033;-89
2022/07/05 08:24:22;;;;;;;6.38;1.98;;;;;;;32.89;41.85;100439.50;4914097;29;20040;-91
2022/07/05 08:26:47;;;;;;;4.97;2.28;;;;;;;32.49;43.48;100433.03;4934381;29;20116;-88
2022/07/05 08:29:14;;;;;;;12.10;2.42;;;;;;;32.66;42.78;100433.19;5017104;28;20093;-88
2022/07/05 08:31:44;;;;;;;11.65;2.33;;;;;;;32.74;41.82;100432.47;4921638;28;20036;-85
2022/07/05 08:34:11;;;;;;;8.50;1.95;;;;;;;33.00;41.00;100435.41;4908409;29;20107;-87
2022/07/05 08:36:45;;;;;;;9.00;1.85;;;;;;;33.17;40.97;100435.53;4925231;28;20032;-93
2022/07/05 08:39:11;;;;;;;11.05;2.25;;;;;;;33.06;40.65;100450.63;4943203;28;20045;-89
2022/07/05 08:41:42;;;;;;;4.63;1.70;;;;;;;33.13;40.68;100444.72;4911466;29;20074;-87
2022/07/05 08:44:08;;;;;;;9.60;1.92;;;;;;;33.37;40.11;100445.19;4893873;29;20036;-88
2022/07/05 08:46:38;;;;;;;4.68;1.90;;;;;;;34.13;37.68;100443.09;4898498;29;20564;-90
2022/07/05 08:49:05;;;;;;;7.22;2.08;;;;;;;33.98;38.66;100440.75;4928317;28;20409;-92
2022/07/05 08:51:33;;;;;;;2.28;1.58;;;;;;;33.91;39.40;100443.19;4917614;29;20032;-91
2022/07/05 08:54:00;;;;;;;9.40;2.17;;;;;;;33.82;39.14;100450.56;4998880;28;20405;-92
2022/07/05 08:56:26;;;;;;;7.22;2.08;;;;;;;33.70;39.54;100448.44;4915280;29;20152;-88
2022/07/05 08:58:54;;;;;;;11.73;2.00;;;;;;;33.60;40.00;100443.19;4894783;28;20032;-90
2022/07/05 09:01:21;;;;;;;6.25;2.28;;;;;;;33.96;38.92;100441.06;4923255;28;20219;-90
2022/07/05 09:03:51;;;;;;;5.28;2.38;;;;;;;34.56;37.87;100443.13;4917092;29;20040;-86
2022/07/05 09:06:22;;;;;;;6.32;2.38;;;;;;;34.64;38.11;100445.09;4917545;29;20086;-91
2022/07/05 09:08:50;;;;;;;7.43;1.70;;;;;;;34.54;37.85;100445.38;4917069;29;20040;-92
2022/07/05 09:11:19;;;;;;;6.93;2.20;;;;;;;35.19;36.88;100445.25;4909978;28;20119;-90
2022/07/05 09:13:49;;;;;;;12.20;2.20;;;;;;;34.48;37.38;100432.91;4917277;29;20040;-91
2022/07/05 09:16:16;;;;;;;6.32;2.20;;;;;;;34.42;37.64;100435.03;4900511;29;20420;-92
2022/07/05 09:18:46;;;;;;;5.85;2.22;;;;;;;34.34;38.00;100437.78;4982715;28;20099;-90
2022/07/05 09:21:18;;;;;;;7.07;2.00;;;;;;;34.81;37.56;100434.06;4980104;28;20394;-88
2022/07/05 09:24:08;;;;;;;6.22;2.35;;;;;;;34.88;37.00;100439.91;4899241;29;20044;-91
2022/07/05 09:26:35;;;;;;;5.35;2.53;;;;;;;35.05;36.35;100442.63;4896368;29;20040;-88
2022/07/05 09:29:04;;;;;;;6.05;2.75;;;;;;;34.53;37.92;100443.78;4895589;29;20078;-91
2022/07/05 09:31:34;;;;;;;5.93;2.28;;;;;;;34.37;37.98;100445.41;4913271;29;20448;-91
2022/07/05 09:34:08;;;;;;;6.28;2.72;;;;;;;34.14;38.69;100434.50;4915452;29;20103;-90
2022/07/05 09:36:55;;;;;;;4.72;2.08;;;;;;;34.89;37.57;100422.25;4998038;28;20514;-92
2022/07/05 09:39:40;;;;;;;7.13;1.90;;;;;;;34.72;38.17;100427.78;4910417;29;20037;-92
2022/07/05 09:42:22;;;;;;;9.13;2.78;;;;;;;34.81;37.15;100425.00;4920436;28;20068;-92
2022/07/05 09:44:52;;;;;;;10.80;2.70;;;;;;;34.73;37.48;100416.44;4916395;29;20041;-93
2022/07/05 09:47:27;;;;;;;8.85;2.25;;;;;;;34.44;38.61;100423.72;4997896;28;20068;-91
2022/07/05 09:50:06;;;;;;;4.78;2.42;;;;;;;34.28;37.75;100424.16;4976382;28;20036;-91
2022/07/05 09:52:37;;;;;;;4.40;2.28;;;;;;;34.30;38.24;100417.53;4917281;29;20032;-89
2022/07/05 09:55:07;;;;;;;12.67;3.13;;;;;;;34.26;38.07;100420.94;4915060;29;20154;-91
2022/07/05 09:57:35;;;;;;;9.13;3.50;;;;;;;34.05;38.33;100417.16;4998216;28;20296;-88
2022/07/05 10:00:04;;;;;;;4.43;2.35;;;;;;;34.77;37.53;100416.56;4906597;29;20028;-91
2022/07/05 10:02:42;;;;;;;7.38;2.78;;;;;;;34.33;38.02;100412.22;4927263;29;20476;-92
2022/07/05 10:05:19;;;;;;;6.60;2.70;;;;;;;34.22;37.86;100410.88;4896961;29;20075;-93
2022/07/05 10:07:49;;;;;;;3.53;2.15;;;;;;;34.13;38.16;100413.66;4901911;29;20035;-91
2022/07/05 10:10:20;;;;;;;4.53;2.22;;;;;;;34.36;37.76;100405.25;4987282;28;20049;-92
2022/07/05 10:12:50;;;;;;;9.70;2.87;;;;;;;34.51;37.60;100405.56;4918885;29;20048;-93
2022/07/05 10:15:19;;;;;;;7.47;2.92;;;;;;;34.63;37.91;100410.47;4893437;28;20028;-92
2022/07/05 10:17:52;;;;;;;12.57;2.72;;;;;;;34.69;38.00;100411.91;4887024;29;20045;-90
2022/07/05 10:20:29;;;;;;;9.85;3.28;;;;;;;34.68;37.77;100410.28;4918504;29;20083;-91
2022/07/05 10:22:56;;;;;;;8.40;2.95;;;;;;;34.46;38.15;100413.19;4907847;29;20040;-91
2022/07/05 10:25:25;;;;;;;7.55;3.03;;;;;;;34.18;38.89;100407.97;4887144;29;20033;-91
2022/07/05 10:27:53;;;;;;;6.32;2.67;;;;;;;34.28;39.09;100409.59;4883849;29;20108;-92
2022/07/05 10:30:20;;;;;;;7.57;2.90;;;;;;;34.57;37.47;100400.72;4897858;28;20070;-93
2022/07/05 10:32:47;;;;;;;9.07;2.45;;;;;;;34.94;37.13;100400.03;4906476;29;20051;-88
2022/07/05 10:35:12;;;;;;;5.82;2.58;;;;;;;35.26;36.50;100402.25;4899928;29;20124;-90
2022/07/05 10:37:41;;;;;;;8.70;2.20;;;;;;;35.46;36.37;100397.16;4900301;29;20067;-92
2022/07/05 10:42:55;;;;;;;4.55;2.38;;;;;;;35.17;35.59;100395.94;4900366;28;20429;-90
2022/07/05 10:45:32;;;;;;;8.35;2.50;;;;;;;35.02;35.40;100396.47;4919220;28;20048;-89
2022/07/05 10:48:19;;;;;;;6.78;2.38;;;;;;;34.80;35.82;100399.44;5003798;28;20047;-92
2022/07/05 10:50:57;;;;;;;7.43;2.25;;;;;;;35.23;35.25;100396.59;4920236;29;20096;-91
2022/07/05 10:53:24;;;;;;;6.53;2.15;;;;;;;35.29;35.16;100387.00;5004601;28;20044;-87
2022/07/05 10:55:50;;;;;;;5.15;2.15;;;;;;;35.25;35.28;100386.88;4907709;29;20127;-90
2022/07/05 10:58:50;;;;;;;4.18;2.17;;;;;;;35.14;35.13;100388.34;4894667;29;20108;-87
2022/07/05 11:01:18;;;;;;;9.80;2.97;;;;;;;35.08;35.93;100388.81;4899375;28;20081;-92
2022/07/05 11:04:00;;;;;;;8.88;3.45;;;;;;;34.72;36.87;100383.72;4888443;29;20068;-88
2022/07/05 11:06:38;;;;;;;8.88;2.80;;;;;;;34.84;36.97;100383.84;4898062;28;20063;-88
2022/07/05 11:09:10;;;;;;;7.05;2.40;;;;;;;35.22;36.07;100373.75;4980438;28;20104;-89
2022/07/05 11:11:43;;;;;;;7.57;2.53;;;;;;;35.49;34.94;100377.19;4902713;29;20123;-90
2022/07/05 11:14:21;;;;;;;4.97;2.15;;;;;;;35.62;34.39;100378.94;4892170;29;20021;-91
2022/07/05 11:17:06;;;;;;;7.95;2.45;;;;;;;35.42;33.96;100377.72;4900107;29;20033;-88
2022/07/05 11:20:04;;;;;;;12.68;2.75;;;;;;;35.78;33.13;100380.00;4901696;28;20036;-84
2022/07/05 11:22:30;;;;;;;5.82;1.58;;;;;;;35.02;31.41;100368.09;4895716;29;21099;-82
2022/07/05 11:24:57;;;;;;;11.05;1.80;;;;;;;34.78;33.39;100371.41;4898288;29;20039;-86
2022/07/05 11:27:23;;;;;;;3.42;2.03;;;;;;;35.26;32.85;100369.19;4909893;28;20037;-86
2022/07/05 11:29:49;;;;;;;5.13;1.73;;;;;;;35.12;32.17;100362.25;4906897;28;20036;-84